sensor_id;sensor_type;location;lat;lon;timestamp;P1;durP1;ratioP1;P2;durP2;ratioP2
27576;SDS011;15011;53.380;10.034;2024-01-11T00:03:46;25.73;;;10.77;;
27576;SDS011;15011;53.380;10.034;2024-01-11T00:08:46;28.17;;;11.67;;
27576;SDS011;15011;53.380;10.034;2024-01-11T00:13:47;22.97;;;10.60;;
27576;SDS011;15011;53.380;10.034;2024-01-11T00:18:47;24.17;;;11.53;;
27576;SDS011;15011;53.380;10.034;2024-01-11T00:23:48;20.27;;;9.77;;
27576;SDS011;15011;53.380;10.034;2024-01-11T00:28:49;22.38;;;10.00;;
27576;SDS011;15011;53.380;10.034;2024-01-11T00:33:49;20.73;;;9.20;;
27576;SDS011;15011;53.380;10.034;2024-01-11T00:38:50;20.57;;;9.43;;
27576;SDS011;15011;53.380;10.034;2024-01-11T00:43:50;25.02;;;10.73;;
27576;SDS011;15011;53.380;10.034;2024-01-11T00:48:51;23.97;;;10.30;;
27576;SDS011;15011;53.380;10.034;2024-01-11T00:53:51;22.63;;;9.83;;
27576;SDS011;15011;53.380;10.034;2024-01-11T00:58:52;20.07;;;9.17;;
27576;SDS011;15011;53.380;10.034;2024-01-11T01:03:53;29.83;;;11.80;;
27576;SDS011;15011;53.380;10.034;2024-01-11T01:08:54;25.00;;;11.17;;
27576;SDS011;15011;53.380;10.034;2024-01-11T01:13:55;26.90;;;11.68;;
27576;SDS011;15011;53.380;10.034;2024-01-11T01:18:55;25.07;;;11.33;;
27576;SDS011;15011;53.380;10.034;2024-01-11T01:23:57;31.55;;;12.27;;
27576;SDS011;15011;53.380;10.034;2024-01-11T01:28:58;10.52;;;5.05;;
27576;SDS011;15011;53.380;10.034;2024-01-11T01:33:59;28.55;;;10.35;;
27576;SDS011;15011;53.380;10.034;2024-01-11T01:38:59;27.50;;;12.40;;
27576;SDS011;15011;53.380;10.034;2024-01-11T01:43:59;30.07;;;12.57;;
27576;SDS011;15011;53.380;10.034;2024-01-11T01:49:00;32.00;;;13.73;;
27576;SDS011;15011;53.380;10.034;2024-01-11T01:54:01;30.00;;;12.65;;
27576;SDS011;15011;53.380;10.034;2024-01-11T01:59:02;32.60;;;14.15;;
27576;SDS011;15011;53.380;10.034;2024-01-11T02:04:03;25.15;;;10.50;;
27576;SDS011;15011;53.380;10.034;2024-01-11T02:09:04;28.63;;;11.18;;
27576;SDS011;15011;53.380;10.034;2024-01-11T02:14:08;26.80;;;11.48;;
27576;SDS011;15011;53.380;10.034;2024-01-11T02:19:11;30.92;;;12.13;;
27576;SDS011;15011;53.380;10.034;2024-01-11T02:24:13;29.27;;;11.88;;
27576;SDS011;15011;53.380;10.034;2024-01-11T02:29:13;29.90;;;12.53;;
27576;SDS011;15011;53.380;10.034;2024-01-11T02:34:14;28.10;;;10.05;;
27576;SDS011;15011;53.380;10.034;2024-01-11T02:39:15;21.60;;;9.55;;
27576;SDS011;15011;53.380;10.034;2024-01-11T02:44:17;29.35;;;12.15;;
27576;SDS011;15011;53.380;10.034;2024-01-11T02:49:17;31.40;;;11.55;;
27576;SDS011;15011;53.380;10.034;2024-01-11T02:54:18;28.98;;;12.27;;
27576;SDS011;15011;53.380;10.034;2024-01-11T02:59:18;33.57;;;13.40;;
27576;SDS011;15011;53.380;10.034;2024-01-11T03:04:19;28.10;;;10.82;;
27576;SDS011;15011;53.380;10.034;2024-01-11T03:09:19;23.47;;;9.17;;
27576;SDS011;15011;53.380;10.034;2024-01-11T03:14:20;28.20;;;11.05;;
27576;SDS011;15011;53.380;10.034;2024-01-11T03:19:20;24.43;;;10.87;;
27576;SDS011;15011;53.380;10.034;2024-01-11T03:24:21;23.53;;;10.47;;
27576;SDS011;15011;53.380;10.034;2024-01-11T03:29:21;29.23;;;11.53;;
27576;SDS011;15011;53.380;10.034;2024-01-11T03:34:21;25.50;;;11.47;;
27576;SDS011;15011;53.380;10.034;2024-01-11T03:39:22;25.50;;;10.00;;
27576;SDS011;15011;53.380;10.034;2024-01-11T03:44:22;23.50;;;9.60;;
27576;SDS011;15011;53.380;10.034;2024-01-11T03:49:23;28.97;;;11.60;;
27576;SDS011;15011;53.380;10.034;2024-01-11T03:54:24;23.05;;;9.85;;
27576;SDS011;15011;53.380;10.034;2024-01-11T03:59:24;21.53;;;10.87;;
27576;SDS011;15011;53.380;10.034;2024-01-11T04:04:24;24.00;;;9.67;;
27576;SDS011;15011;53.380;10.034;2024-01-11T04:09:25;22.90;;;9.87;;
27576;SDS011;15011;53.380;10.034;2024-01-11T04:14:25;28.33;;;11.87;;
27576;SDS011;15011;53.380;10.034;2024-01-11T04:19:26;19.53;;;6.97;;
27576;SDS011;15011;53.380;10.034;2024-01-11T04:24:26;21.67;;;8.87;;
27576;SDS011;15011;53.380;10.034;2024-01-11T04:29:27;23.90;;;9.60;;
27576;SDS011;15011;53.380;10.034;2024-01-11T04:34:27;27.98;;;10.20;;
27576;SDS011;15011;53.380;10.034;2024-01-11T04:39:28;25.43;;;11.07;;
27576;SDS011;15011;53.380;10.034;2024-01-11T04:44:28;30.63;;;11.43;;
27576;SDS011;15011;53.380;10.034;2024-01-11T04:49:28;32.93;;;12.03;;
27576;SDS011;15011;53.380;10.034;2024-01-11T04:54:29;35.03;;;12.77;;
27576;SDS011;15011;53.380;10.034;2024-01-11T04:59:29;34.23;;;11.27;;
27576;SDS011;15011;53.380;10.034;2024-01-11T05:04:30;47.17;;;15.43;;
27576;SDS011;15011;53.380;10.034;2024-01-11T05:09:30;47.87;;;14.47;;
27576;SDS011;15011;53.380;10.034;2024-01-11T05:14:31;46.03;;;13.40;;
27576;SDS011;15011;53.380;10.034;2024-01-11T05:19:31;43.15;;;15.32;;
27576;SDS011;15011;53.380;10.034;2024-01-11T05:24:31;45.63;;;14.30;;
27576;SDS011;15011;53.380;10.034;2024-01-11T05:29:32;54.17;;;15.70;;
27576;SDS011;15011;53.380;10.034;2024-01-11T05:34:32;33.97;;;12.87;;
27576;SDS011;15011;53.380;10.034;2024-01-11T05:39:33;41.47;;;14.60;;
27576;SDS011;15011;53.380;10.034;2024-01-11T05:44:33;43.93;;;16.17;;
27576;SDS011;15011;53.380;10.034;2024-01-11T05:49:34;45.10;;;15.63;;
27576;SDS011;15011;53.380;10.034;2024-01-11T05:54:34;45.63;;;14.90;;
27576;SDS011;15011;53.380;10.034;2024-01-11T05:59:35;44.65;;;15.20;;
27576;SDS011;15011;53.380;10.034;2024-01-11T06:04:36;22.17;;;8.57;;
27576;SDS011;15011;53.380;10.034;2024-01-11T06:09:36;46.92;;;14.88;;
27576;SDS011;15011;53.380;10.034;2024-01-11T06:14:36;47.77;;;14.23;;
27576;SDS011;15011;53.380;10.034;2024-01-11T06:19:37;39.10;;;13.07;;
27576;SDS011;15011;53.380;10.034;2024-01-11T06:24:38;29.90;;;10.23;;
27576;SDS011;15011;53.380;10.034;2024-01-11T06:29:38;37.97;;;11.80;;
27576;SDS011;15011;53.380;10.034;2024-01-11T06:34:39;36.00;;;12.07;;
27576;SDS011;15011;53.380;10.034;2024-01-11T06:39:41;44.92;;;13.48;;
27576;SDS011;15011;53.380;10.034;2024-01-11T06:44:42;39.45;;;12.63;;
27576;SDS011;15011;53.380;10.034;2024-01-11T06:49:42;39.90;;;12.27;;
27576;SDS011;15011;53.380;10.034;2024-01-11T06:54:42;38.10;;;10.27;;
27576;SDS011;15011;53.380;10.034;2024-01-11T06:59:43;39.10;;;10.90;;
27576;SDS011;15011;53.380;10.034;2024-01-11T07:04:46;36.30;;;11.20;;
27576;SDS011;15011;53.380;10.034;2024-01-11T07:09:46;28.97;;;9.20;;
27576;SDS011;15011;53.380;10.034;2024-01-11T07:14:47;33.53;;;8.50;;
27576;SDS011;15011;53.380;10.034;2024-01-11T07:19:48;22.23;;;7.45;;
27576;SDS011;15011;53.380;10.034;2024-01-11T07:24:48;26.47;;;6.77;;
27576;SDS011;15011;53.380;10.034;2024-01-11T07:29:50;21.90;;;6.90;;
27576;SDS011;15011;53.380;10.034;2024-01-11T07:34:50;24.08;;;8.75;;
27576;SDS011;15011;53.380;10.034;2024-01-11T07:39:51;22.08;;;7.90;;
27576;SDS011;15011;53.380;10.034;2024-01-11T07:44:51;28.27;;;7.13;;
27576;SDS011;15011;53.380;10.034;2024-01-11T07:49:51;24.00;;;7.60;;
27576;SDS011;15011;53.380;10.034;2024-01-11T07:54:52;16.47;;;5.90;;
27576;SDS011;15011;53.380;10.034;2024-01-11T07:59:54;33.35;;;7.95;;
27576;SDS011;15011;53.380;10.034;2024-01-11T08:04:55;22.02;;;7.63;;
27576;SDS011;15011;53.380;10.034;2024-01-11T08:09:56;20.17;;;7.43;;
27576;SDS011;15011;53.380;10.034;2024-01-11T08:14:56;27.90;;;8.15;;
27576;SDS011;15011;53.380;10.034;2024-01-11T08:19:57;25.80;;;6.93;;
27576;SDS011;15011;53.380;10.034;2024-01-11T08:24:57;32.73;;;8.63;;
27576;SDS011;15011;53.380;10.034;2024-01-11T08:29:57;37.13;;;9.73;;
27576;SDS011;15011;53.380;10.034;2024-01-11T08:34:58;28.63;;;8.20;;
27576;SDS011;15011;53.380;10.034;2024-01-11T08:39:58;28.60;;;7.67;;
27576;SDS011;15011;53.380;10.034;2024-01-11T08:44:59;35.23;;;10.00;;
27576;SDS011;15011;53.380;10.034;2024-01-11T08:50:04;29.45;;;9.85;;
27576;SDS011;15011;53.380;10.034;2024-01-11T08:55:06;28.60;;;8.38;;
27576;SDS011;15011;53.380;10.034;2024-01-11T09:00:07;29.38;;;8.52;;
27576;SDS011;15011;53.380;10.034;2024-01-11T09:05:08;24.73;;;7.85;;
27576;SDS011;15011;53.380;10.034;2024-01-11T09:10:08;27.37;;;8.40;;
27576;SDS011;15011;53.380;10.034;2024-01-11T09:15:09;27.27;;;9.68;;
27576;SDS011;15011;53.380;10.034;2024-01-11T09:20:10;27.20;;;9.13;;
27576;SDS011;15011;53.380;10.034;2024-01-11T09:25:14;27.98;;;7.57;;
27576;SDS011;15011;53.380;10.034;2024-01-11T09:30:14;34.07;;;9.03;;
27576;SDS011;15011;53.380;10.034;2024-01-11T09:35:15;26.48;;;9.02;;
27576;SDS011;15011;53.380;10.034;2024-01-11T09:40:16;30.88;;;9.63;;
27576;SDS011;15011;53.380;10.034;2024-01-11T09:45:18;36.47;;;10.98;;
27576;SDS011;15011;53.380;10.034;2024-01-11T09:50:18;29.15;;;9.27;;
27576;SDS011;15011;53.380;10.034;2024-01-11T09:55:19;31.27;;;9.88;;
27576;SDS011;15011;53.380;10.034;2024-01-11T10:00:22;12.87;;;6.00;;
27576;SDS011;15011;53.380;10.034;2024-01-11T10:05:23;28.65;;;8.52;;
27576;SDS011;15011;53.380;10.034;2024-01-11T10:10:24;19.57;;;7.13;;
27576;SDS011;15011;53.380;10.034;2024-01-11T10:15:24;12.80;;;4.47;;
27576;SDS011;15011;53.380;10.034;2024-01-11T10:20:25;30.33;;;8.90;;
27576;SDS011;15011;53.380;10.034;2024-01-11T10:25:25;18.00;;;5.35;;
27576;SDS011;15011;53.380;10.034;2024-01-11T10:30:25;22.67;;;7.40;;
27576;SDS011;15011;53.380;10.034;2024-01-11T10:35:26;22.90;;;8.60;;
27576;SDS011;15011;53.380;10.034;2024-01-11T10:40:26;20.80;;;6.17;;
27576;SDS011;15011;53.380;10.034;2024-01-11T10:45:28;22.13;;;8.90;;
27576;SDS011;15011;53.380;10.034;2024-01-11T10:50:30;33.67;;;9.38;;
27576;SDS011;15011;53.380;10.034;2024-01-11T10:55:33;26.70;;;9.90;;
27576;SDS011;15011;53.380;10.034;2024-01-11T11:00:34;27.38;;;8.43;;
27576;SDS011;15011;53.380;10.034;2024-01-11T11:05:35;29.13;;;10.73;;
27576;SDS011;15011;53.380;10.034;2024-01-11T11:10:36;31.90;;;10.18;;
27576;SDS011;15011;53.380;10.034;2024-01-11T11:15:39;33.65;;;11.05;;
27576;SDS011;15011;53.380;10.034;2024-01-11T11:20:40;30.17;;;10.07;;
27576;SDS011;15011;53.380;10.034;2024-01-11T11:25:47;30.33;;;10.85;;
27576;SDS011;15011;53.380;10.034;2024-01-11T11:30:49;34.72;;;10.18;;
27576;SDS011;15011;53.380;10.034;2024-01-11T11:35:52;34.42;;;10.32;;
27576;SDS011;15011;53.380;10.034;2024-01-11T11:40:54;35.38;;;12.07;;
27576;SDS011;15011;53.380;10.034;2024-01-11T11:45:56;36.00;;;12.02;;
27576;SDS011;15011;53.380;10.034;2024-01-11T11:56:06;34.33;;;12.63;;
27576;SDS011;15011;53.380;10.034;2024-01-11T12:01:10;40.42;;;12.38;;
27576;SDS011;15011;53.380;10.034;2024-01-11T12:06:11;38.70;;;11.48;;
27576;SDS011;15011;53.380;10.034;2024-01-11T12:11:18;39.72;;;13.75;;
27576;SDS011;15011;53.380;10.034;2024-01-11T12:16:20;37.13;;;13.80;;
27576;SDS011;15011;53.380;10.034;2024-01-11T12:21:20;45.53;;;12.98;;
27576;SDS011;15011;53.380;10.034;2024-01-11T12:26:21;32.13;;;11.87;;
27576;SDS011;15011;53.380;10.034;2024-01-11T12:31:22;38.90;;;13.60;;
27576;SDS011;15011;53.380;10.034;2024-01-11T12:36:22;40.97;;;12.80;;
27576;SDS011;15011;53.380;10.034;2024-01-11T12:41:23;36.75;;;12.13;;
27576;SDS011;15011;53.380;10.034;2024-01-11T12:46:24;32.53;;;11.73;;
27576;SDS011;15011;53.380;10.034;2024-01-11T12:51:25;38.33;;;12.23;;
27576;SDS011;15011;53.380;10.034;2024-01-11T12:56:26;35.47;;;12.88;;
27576;SDS011;15011;53.380;10.034;2024-01-11T13:01:27;34.63;;;12.32;;
27576;SDS011;15011;53.380;10.034;2024-01-11T13:06:28;27.13;;;10.33;;
27576;SDS011;15011;53.380;10.034;2024-01-11T13:11:30;33.53;;;11.02;;
27576;SDS011;15011;53.380;10.034;2024-01-11T13:16:30;31.05;;;10.55;;
27576;SDS011;15011;53.380;10.034;2024-01-11T13:21:31;33.28;;;10.35;;
27576;SDS011;15011;53.380;10.034;2024-01-11T13:26:31;35.43;;;11.13;;
27576;SDS011;15011;53.380;10.034;2024-01-11T13:31:32;32.80;;;10.23;;
27576;SDS011;15011;53.380;10.034;2024-01-11T13:36:33;30.00;;;10.35;;
27576;SDS011;15011;53.380;10.034;2024-01-11T13:41:34;27.08;;;9.57;;
27576;SDS011;15011;53.380;10.034;2024-01-11T13:46:34;31.58;;;10.07;;
27576;SDS011;15011;53.380;10.034;2024-01-11T13:51:35;30.98;;;9.57;;
27576;SDS011;15011;53.380;10.034;2024-01-11T13:56:37;31.33;;;10.52;;
27576;SDS011;15011;53.380;10.034;2024-01-11T14:01:38;28.83;;;10.40;;
27576;SDS011;15011;53.380;10.034;2024-01-11T14:06:40;32.90;;;9.50;;
27576;SDS011;15011;53.380;10.034;2024-01-11T14:11:40;33.10;;;10.93;;
27576;SDS011;15011;53.380;10.034;2024-01-11T14:16:41;32.53;;;10.90;;
27576;SDS011;15011;53.380;10.034;2024-01-11T14:21:41;31.40;;;10.77;;
27576;SDS011;15011;53.380;10.034;2024-01-11T14:26:42;31.67;;;10.85;;
27576;SDS011;15011;53.380;10.034;2024-01-11T14:31:43;34.97;;;11.23;;
27576;SDS011;15011;53.380;10.034;2024-01-11T14:36:44;33.43;;;10.70;;
27576;SDS011;15011;53.380;10.034;2024-01-11T14:41:44;32.80;;;10.85;;
27576;SDS011;15011;53.380;10.034;2024-01-11T14:46:45;43.42;;;12.45;;
27576;SDS011;15011;53.380;10.034;2024-01-11T14:51:46;36.20;;;10.30;;
27576;SDS011;15011;53.380;10.034;2024-01-11T14:56:46;33.70;;;11.67;;
27576;SDS011;15011;53.380;10.034;2024-01-11T15:01:50;30.08;;;11.18;;
27576;SDS011;15011;53.380;10.034;2024-01-11T15:06:51;30.90;;;10.60;;
27576;SDS011;15011;53.380;10.034;2024-01-11T15:11:52;29.63;;;10.27;;
27576;SDS011;15011;53.380;10.034;2024-01-11T15:16:53;35.55;;;11.82;;
27576;SDS011;15011;53.380;10.034;2024-01-11T15:21:53;29.97;;;10.70;;
27576;SDS011;15011;53.380;10.034;2024-01-11T15:26:54;30.63;;;11.47;;
27576;SDS011;15011;53.380;10.034;2024-01-11T15:31:54;33.73;;;11.63;;
27576;SDS011;15011;53.380;10.034;2024-01-11T15:36:55;36.23;;;11.47;;
27576;SDS011;15011;53.380;10.034;2024-01-11T15:41:55;29.15;;;10.20;;
27576;SDS011;15011;53.380;10.034;2024-01-11T15:46:56;37.50;;;11.23;;
27576;SDS011;15011;53.380;10.034;2024-01-11T15:51:57;22.90;;;9.63;;
27576;SDS011;15011;53.380;10.034;2024-01-11T15:56:58;23.00;;;7.28;;
27576;SDS011;15011;53.380;10.034;2024-01-11T16:01:58;20.50;;;6.83;;
27576;SDS011;15011;53.380;10.034;2024-01-11T16:06:59;21.07;;;7.37;;
27576;SDS011;15011;53.380;10.034;2024-01-11T16:11:59;20.73;;;7.18;;
27576;SDS011;15011;53.380;10.034;2024-01-11T16:17:00;21.20;;;7.33;;
27576;SDS011;15011;53.380;10.034;2024-01-11T16:22:00;22.30;;;7.80;;
27576;SDS011;15011;53.380;10.034;2024-01-11T16:27:01;29.27;;;8.35;;
27576;SDS011;15011;53.380;10.034;2024-01-11T16:32:02;27.13;;;9.32;;
27576;SDS011;15011;53.380;10.034;2024-01-11T16:37:02;27.15;;;10.10;;
27576;SDS011;15011;53.380;10.034;2024-01-11T16:42:03;21.75;;;9.07;;
27576;SDS011;15011;53.380;10.034;2024-01-11T16:47:03;25.35;;;9.80;;
27576;SDS011;15011;53.380;10.034;2024-01-11T16:52:04;24.73;;;8.60;;
27576;SDS011;15011;53.380;10.034;2024-01-11T16:57:06;26.85;;;9.75;;
27576;SDS011;15011;53.380;10.034;2024-01-11T17:02:06;25.77;;;9.38;;
27576;SDS011;15011;53.380;10.034;2024-01-11T17:07:08;27.57;;;9.50;;
27576;SDS011;15011;53.380;10.034;2024-01-11T17:12:09;21.88;;;9.57;;
27576;SDS011;15011;53.380;10.034;2024-01-11T17:17:09;23.65;;;10.43;;
27576;SDS011;15011;53.380;10.034;2024-01-11T17:22:10;31.17;;;10.37;;
27576;SDS011;15011;53.380;10.034;2024-01-11T17:27:10;19.50;;;9.33;;
27576;SDS011;15011;53.380;10.034;2024-01-11T17:32:14;21.60;;;8.93;;
27576;SDS011;15011;53.380;10.034;2024-01-11T17:37:15;23.02;;;9.90;;
27576;SDS011;15011;53.380;10.034;2024-01-11T17:42:16;26.55;;;10.38;;
27576;SDS011;15011;53.380;10.034;2024-01-11T17:47:17;32.30;;;12.60;;
27576;SDS011;15011;53.380;10.034;2024-01-11T17:52:18;21.53;;;10.23;;
27576;SDS011;15011;53.380;10.034;2024-01-11T17:57:19;41.15;;;11.43;;
27576;SDS011;15011;53.380;10.034;2024-01-11T18:02:19;22.83;;;9.37;;
27576;SDS011;15011;53.380;10.034;2024-01-11T18:07:20;27.30;;;10.68;;
27576;SDS011;15011;53.380;10.034;2024-01-11T18:17:23;23.85;;;10.40;;
27576;SDS011;15011;53.380;10.034;2024-01-11T18:22:24;29.83;;;10.37;;
27576;SDS011;15011;53.380;10.034;2024-01-11T18:27:26;23.83;;;9.88;;
27576;SDS011;15011;53.380;10.034;2024-01-11T18:32:27;34.05;;;12.00;;
27576;SDS011;15011;53.380;10.034;2024-01-11T18:37:28;35.40;;;12.50;;
27576;SDS011;15011;53.380;10.034;2024-01-11T18:42:28;30.13;;;11.57;;
27576;SDS011;15011;53.380;10.034;2024-01-11T18:47:29;30.43;;;11.53;;
27576;SDS011;15011;53.380;10.034;2024-01-11T18:52:31;36.15;;;11.15;;
27576;SDS011;15011;53.380;10.034;2024-01-11T18:57:32;34.37;;;11.20;;
27576;SDS011;15011;53.380;10.034;2024-01-11T19:02:32;27.43;;;9.57;;
27576;SDS011;15011;53.380;10.034;2024-01-11T19:07:33;28.27;;;11.63;;
27576;SDS011;15011;53.380;10.034;2024-01-11T19:12:33;23.37;;;9.80;;
27576;SDS011;15011;53.380;10.034;2024-01-11T19:17:34;21.02;;;9.77;;
27576;SDS011;15011;53.380;10.034;2024-01-11T19:22:34;31.48;;;11.68;;
27576;SDS011;15011;53.380;10.034;2024-01-11T19:27:35;34.97;;;11.80;;
27576;SDS011;15011;53.380;10.034;2024-01-11T19:32:35;23.47;;;10.27;;
27576;SDS011;15011;53.380;10.034;2024-01-11T19:37:36;22.25;;;10.13;;
27576;SDS011;15011;53.380;10.034;2024-01-11T19:42:36;26.47;;;10.07;;
27576;SDS011;15011;53.380;10.034;2024-01-11T19:47:37;22.83;;;9.50;;
27576;SDS011;15011;53.380;10.034;2024-01-11T19:52:38;29.70;;;11.35;;
27576;SDS011;15011;53.380;10.034;2024-01-11T19:57:39;33.87;;;11.97;;
27576;SDS011;15011;53.380;10.034;2024-01-11T20:02:39;34.17;;;12.70;;
27576;SDS011;15011;53.380;10.034;2024-01-11T20:07:40;31.42;;;11.20;;
27576;SDS011;15011;53.380;10.034;2024-01-11T20:12:40;31.93;;;14.83;;
27576;SDS011;15011;53.380;10.034;2024-01-11T20:17:42;40.45;;;16.30;;
27576;SDS011;15011;53.380;10.034;2024-01-11T20:22:42;46.80;;;19.63;;
27576;SDS011;15011;53.380;10.034;2024-01-11T20:27:43;49.73;;;21.17;;
27576;SDS011;15011;53.380;10.034;2024-01-11T20:32:43;48.15;;;20.63;;
27576;SDS011;15011;53.380;10.034;2024-01-11T20:37:44;39.83;;;17.47;;
27576;SDS011;15011;53.380;10.034;2024-01-11T20:42:44;31.27;;;15.63;;
27576;SDS011;15011;53.380;10.034;2024-01-11T20:47:44;32.63;;;13.63;;
27576;SDS011;15011;53.380;10.034;2024-01-11T20:52:45;33.20;;;14.57;;
27576;SDS011;15011;53.380;10.034;2024-01-11T20:57:46;27.60;;;13.45;;
27576;SDS011;15011;53.380;10.034;2024-01-11T21:02:46;27.37;;;13.83;;
27576;SDS011;15011;53.380;10.034;2024-01-11T21:07:46;26.77;;;12.40;;
27576;SDS011;15011;53.380;10.034;2024-01-11T21:12:47;27.40;;;12.87;;
27576;SDS011;15011;53.380;10.034;2024-01-11T21:17:49;25.75;;;11.88;;
27576;SDS011;15011;53.380;10.034;2024-01-11T21:22:49;22.07;;;9.87;;
27576;SDS011;15011;53.380;10.034;2024-01-11T21:27:50;20.67;;;10.33;;
27576;SDS011;15011;53.380;10.034;2024-01-11T21:32:50;24.13;;;10.80;;
27576;SDS011;15011;53.380;10.034;2024-01-11T21:37:51;18.67;;;10.32;;
27576;SDS011;15011;53.380;10.034;2024-01-11T21:42:51;22.92;;;11.45;;
27576;SDS011;15011;53.380;10.034;2024-01-11T21:47:52;25.13;;;11.03;;
27576;SDS011;15011;53.380;10.034;2024-01-11T21:52:52;28.13;;;13.83;;
27576;SDS011;15011;53.380;10.034;2024-01-11T21:57:52;23.67;;;11.47;;
27576;SDS011;15011;53.380;10.034;2024-01-11T22:02:54;24.88;;;11.60;;
27576;SDS011;15011;53.380;10.034;2024-01-11T22:07:56;23.95;;;12.02;;
27576;SDS011;15011;53.380;10.034;2024-01-11T22:12:56;29.27;;;13.50;;
27576;SDS011;15011;53.380;10.034;2024-01-11T22:17:56;28.47;;;13.60;;
27576;SDS011;15011;53.380;10.034;2024-01-11T22:22:57;30.48;;;14.85;;
27576;SDS011;15011;53.380;10.034;2024-01-11T22:27:58;27.50;;;13.65;;
27576;SDS011;15011;53.380;10.034;2024-01-11T22:32:58;24.47;;;11.67;;
27576;SDS011;15011;53.380;10.034;2024-01-11T22:37:59;23.20;;;11.38;;
27576;SDS011;15011;53.380;10.034;2024-01-11T22:42:59;19.80;;;8.97;;
27576;SDS011;15011;53.380;10.034;2024-01-11T22:48:02;19.00;;;9.38;;
27576;SDS011;15011;53.380;10.034;2024-01-11T22:53:03;20.77;;;9.88;;
27576;SDS011;15011;53.380;10.034;2024-01-11T22:58:03;18.83;;;8.63;;
27576;SDS011;15011;53.380;10.034;2024-01-11T23:03:04;17.43;;;8.00;;
27576;SDS011;15011;53.380;10.034;2024-01-11T23:08:04;28.17;;;12.48;;
27576;SDS011;15011;53.380;10.034;2024-01-11T23:13:05;14.82;;;7.40;;
27576;SDS011;15011;53.380;10.034;2024-01-11T23:18:05;12.65;;;7.80;;
27576;SDS011;15011;53.380;10.034;2024-01-11T23:23:06;15.53;;;7.53;;
27576;SDS011;15011;53.380;10.034;2024-01-11T23:28:07;14.93;;;8.47;;
27576;SDS011;15011;53.380;10.034;2024-01-11T23:33:07;16.30;;;8.43;;
27576;SDS011;15011;53.380;10.034;2024-01-11T23:38:10;16.27;;;8.45;;
27576;SDS011;15011;53.380;10.034;2024-01-11T23:43:10;14.85;;;7.65;;
27576;SDS011;15011;53.380;10.034;2024-01-11T23:48:10;20.07;;;8.10;;
27576;SDS011;15011;53.380;10.034;2024-01-11T23:53:11;15.60;;;7.13;;
27576;SDS011;15011;53.380;10.034;2024-01-11T23:58:11;19.93;;;8.23;;
